sensor_id;sensor_type;location;lat;lon;timestamp;temperature;humidity
19039;DHT22;9652;49.014;12.052;2022-12-07T00:00:54;8.50;69.80
19039;DHT22;9652;49.014;12.052;2022-12-07T00:03:21;8.50;69.90
19039;DHT22;9652;49.014;12.052;2022-12-07T00:05:48;8.50;69.80
19039;DHT22;9652;49.014;12.052;2022-12-07T00:08:17;8.50;69.70
19039;DHT22;9652;49.014;12.052;2022-12-07T00:10:44;8.50;69.60
19039;DHT22;9652;49.014;12.052;2022-12-07T00:13:11;8.50;69.60
19039;DHT22;9652;49.014;12.052;2022-12-07T00:15:38;8.50;69.70
19039;DHT22;9652;49.014;12.052;2022-12-07T00:18:05;8.50;69.60
19039;DHT22;9652;49.014;12.052;2022-12-07T00:20:32;8.40;69.50
19039;DHT22;9652;49.014;12.052;2022-12-07T00:23:00;8.40;69.60
19039;DHT22;9652;49.014;12.052;2022-12-07T00:25:30;8.40;69.60
19039;DHT22;9652;49.014;12.052;2022-12-07T00:27:57;8.40;69.60
19039;DHT22;9652;49.014;12.052;2022-12-07T00:30:24;8.40;69.60
19039;DHT22;9652;49.014;12.052;2022-12-07T00:32:51;8.40;69.60
19039;DHT22;9652;49.014;12.052;2022-12-07T00:35:19;8.30;69.50
19039;DHT22;9652;49.014;12.052;2022-12-07T00:37:46;8.30;69.60
19039;DHT22;9652;49.014;12.052;2022-12-07T00:40:13;8.30;69.50
19039;DHT22;9652;49.014;12.052;2022-12-07T00:42:42;8.30;69.50
19039;DHT22;9652;49.014;12.052;2022-12-07T00:45:09;8.30;69.50
19039;DHT22;9652;49.014;12.052;2022-12-07T00:47:36;8.30;69.60
19039;DHT22;9652;49.014;12.052;2022-12-07T00:50:04;8.30;69.50
19039;DHT22;9652;49.014;12.052;2022-12-07T00:52:32;8.30;69.40
19039;DHT22;9652;49.014;12.052;2022-12-07T00:54:59;8.30;69.60
19039;DHT22;9652;49.014;12.052;2022-12-07T00:57:27;8.30;69.60
19039;DHT22;9652;49.014;12.052;2022-12-07T00:59:55;8.30;69.60
19039;DHT22;9652;49.014;12.052;2022-12-07T01:02:23;8.20;69.40
19039;DHT22;9652;49.014;12.052;2022-12-07T01:04:50;8.20;70.30
19039;DHT22;9652;49.014;12.052;2022-12-07T01:07:17;8.20;69.50
19039;DHT22;9652;49.014;12.052;2022-12-07T01:09:44;8.20;69.50
19039;DHT22;9652;49.014;12.052;2022-12-07T01:12:11;8.20;69.60
19039;DHT22;9652;49.014;12.052;2022-12-07T01:14:38;8.20;69.50
19039;DHT22;9652;49.014;12.052;2022-12-07T01:17:07;8.20;69.60
19039;DHT22;9652;49.014;12.052;2022-12-07T01:19:34;8.20;69.60
19039;DHT22;9652;49.014;12.052;2022-12-07T01:22:01;8.20;69.60
19039;DHT22;9652;49.014;12.052;2022-12-07T01:24:29;8.10;69.60
19039;DHT22;9652;49.014;12.052;2022-12-07T01:26:56;8.20;69.60
19039;DHT22;9652;49.014;12.052;2022-12-07T01:29:23;8.10;69.60
19039;DHT22;9652;49.014;12.052;2022-12-07T01:31:50;8.20;69.60
19039;DHT22;9652;49.014;12.052;2022-12-07T01:34:18;8.10;69.50
19039;DHT22;9652;49.014;12.052;2022-12-07T01:36:45;8.20;69.40
19039;DHT22;9652;49.014;12.052;2022-12-07T01:39:12;8.10;69.30
19039;DHT22;9652;49.014;12.052;2022-12-07T01:41:40;8.10;69.30
19039;DHT22;9652;49.014;12.052;2022-12-07T01:44:15;8.10;69.10
19039;DHT22;9652;49.014;12.052;2022-12-07T01:46:45;8.10;69.00
19039;DHT22;9652;49.014;12.052;2022-12-07T01:49:18;8.10;68.90
19039;DHT22;9652;49.014;12.052;2022-12-07T01:51:51;8.10;68.90
19039;DHT22;9652;49.014;12.052;2022-12-07T01:54:24;8.10;68.90
19039;DHT22;9652;49.014;12.052;2022-12-07T01:56:54;8.10;68.90
19039;DHT22;9652;49.014;12.052;2022-12-07T01:59:24;8.10;68.90
19039;DHT22;9652;49.014;12.052;2022-12-07T02:01:53;8.10;68.80
19039;DHT22;9652;49.014;12.052;2022-12-07T02:04:23;8.00;68.70
19039;DHT22;9652;49.014;12.052;2022-12-07T02:06:51;8.10;68.90
19039;DHT22;9652;49.014;12.052;2022-12-07T02:09:18;8.00;68.80
19039;DHT22;9652;49.014;12.052;2022-12-07T02:11:46;8.10;68.90
19039;DHT22;9652;49.014;12.052;2022-12-07T02:14:13;8.00;68.80
19039;DHT22;9652;49.014;12.052;2022-12-07T02:16:48;8.10;68.90
19039;DHT22;9652;49.014;12.052;2022-12-07T02:20:11;8.00;68.80
19039;DHT22;9652;49.014;12.052;2022-12-07T02:26:42;8.10;68.80
19039;DHT22;9652;49.014;12.052;2022-12-07T02:29:22;8.00;68.60
19039;DHT22;9652;49.014;12.052;2022-12-07T02:31:56;8.00;68.80
19039;DHT22;9652;49.014;12.052;2022-12-07T02:34:37;8.00;68.80
19039;DHT22;9652;49.014;12.052;2022-12-07T02:37:16;8.00;68.90
19039;DHT22;9652;49.014;12.052;2022-12-07T02:39:52;8.00;69.80
19039;DHT22;9652;49.014;12.052;2022-12-07T02:42:30;8.00;69.00
19039;DHT22;9652;49.014;12.052;2022-12-07T02:45:05;8.00;69.00
19039;DHT22;9652;49.014;12.052;2022-12-07T02:47:34;8.00;69.00
19039;DHT22;9652;49.014;12.052;2022-12-07T02:50:04;8.00;69.10
19039;DHT22;9652;49.014;12.052;2022-12-07T02:52:32;8.00;69.10
19039;DHT22;9652;49.014;12.052;2022-12-07T02:54:59;8.00;69.40
19039;DHT22;9652;49.014;12.052;2022-12-07T02:57:38;7.90;69.70
19039;DHT22;9652;49.014;12.052;2022-12-07T03:00:18;7.90;69.90
19039;DHT22;9652;49.014;12.052;2022-12-07T03:02:52;7.90;69.90
19039;DHT22;9652;49.014;12.052;2022-12-07T03:05:51;7.80;70.00
19039;DHT22;9652;49.014;12.052;2022-12-07T03:08:48;7.80;70.20
19039;DHT22;9652;49.014;12.052;2022-12-07T03:11:24;7.70;70.20
19039;DHT22;9652;49.014;12.052;2022-12-07T03:14:00;7.70;70.40
19039;DHT22;9652;49.014;12.052;2022-12-07T03:16:40;7.60;70.40
19039;DHT22;9652;49.014;12.052;2022-12-07T03:19:15;7.60;70.50
19039;DHT22;9652;49.014;12.052;2022-12-07T03:21:49;7.60;70.50
19039;DHT22;9652;49.014;12.052;2022-12-07T03:24:22;7.60;70.70
19039;DHT22;9652;49.014;12.052;2022-12-07T03:26:56;7.50;70.70
19039;DHT22;9652;49.014;12.052;2022-12-07T03:29:31;7.50;70.80
19039;DHT22;9652;49.014;12.052;2022-12-07T03:32:06;7.50;70.90
19039;DHT22;9652;49.014;12.052;2022-12-07T03:34:44;7.50;71.10
19039;DHT22;9652;49.014;12.052;2022-12-07T03:37:18;7.50;71.20
19039;DHT22;9652;49.014;12.052;2022-12-07T03:39:57;7.50;71.20
19039;DHT22;9652;49.014;12.052;2022-12-07T03:42:31;7.50;71.30
19039;DHT22;9652;49.014;12.052;2022-12-07T03:45:01;7.50;71.20
19039;DHT22;9652;49.014;12.052;2022-12-07T03:47:34;7.50;71.40
19039;DHT22;9652;49.014;12.052;2022-12-07T03:50:13;7.50;71.50
19039;DHT22;9652;49.014;12.052;2022-12-07T03:52:47;7.50;71.40
19039;DHT22;9652;49.014;12.052;2022-12-07T03:55:24;7.50;71.20
19039;DHT22;9652;49.014;12.052;2022-12-07T03:57:58;7.50;71.10
19039;DHT22;9652;49.014;12.052;2022-12-07T04:00:27;7.50;71.00
19039;DHT22;9652;49.014;12.052;2022-12-07T04:02:56;7.50;71.00
19039;DHT22;9652;49.014;12.052;2022-12-07T04:05:24;7.50;71.10
19039;DHT22;9652;49.014;12.052;2022-12-07T04:07:52;7.50;71.10
19039;DHT22;9652;49.014;12.052;2022-12-07T04:10:19;7.50;71.10
19039;DHT22;9652;49.014;12.052;2022-12-07T04:12:47;7.50;71.10
19039;DHT22;9652;49.014;12.052;2022-12-07T04:15:14;7.50;71.10
19039;DHT22;9652;49.014;12.052;2022-12-07T04:17:41;7.50;71.10
19039;DHT22;9652;49.014;12.052;2022-12-07T04:20:11;7.50;71.10
19039;DHT22;9652;49.014;12.052;2022-12-07T04:22:39;7.40;71.10
19039;DHT22;9652;49.014;12.052;2022-12-07T04:25:07;7.50;71.10
19039;DHT22;9652;49.014;12.052;2022-12-07T04:27:34;7.50;71.00
19039;DHT22;9652;49.014;12.052;2022-12-07T04:30:02;7.50;71.10
19039;DHT22;9652;49.014;12.052;2022-12-07T04:32:30;7.50;71.10
19039;DHT22;9652;49.014;12.052;2022-12-07T04:34:57;7.50;71.10
19039;DHT22;9652;49.014;12.052;2022-12-07T04:37:25;7.40;70.90
19039;DHT22;9652;49.014;12.052;2022-12-07T04:39:52;7.50;71.00
19039;DHT22;9652;49.014;12.052;2022-12-07T04:42:20;7.40;70.90
19039;DHT22;9652;49.014;12.052;2022-12-07T04:44:47;7.50;70.90
19039;DHT22;9652;49.014;12.052;2022-12-07T04:47:14;7.40;70.70
19039;DHT22;9652;49.014;12.052;2022-12-07T04:49:41;7.50;70.90
19039;DHT22;9652;49.014;12.052;2022-12-07T04:52:08;7.40;70.70
19039;DHT22;9652;49.014;12.052;2022-12-07T04:54:37;7.40;70.70
19039;DHT22;9652;49.014;12.052;2022-12-07T04:57:04;7.40;70.70
19039;DHT22;9652;49.014;12.052;2022-12-07T04:59:31;7.50;70.70
19039;DHT22;9652;49.014;12.052;2022-12-07T05:01:58;7.50;70.50
19039;DHT22;9652;49.014;12.052;2022-12-07T05:04:25;7.40;70.20
19039;DHT22;9652;49.014;12.052;2022-12-07T05:06:52;7.40;69.80
19039;DHT22;9652;49.014;12.052;2022-12-07T05:09:19;7.40;69.40
19039;DHT22;9652;49.014;12.052;2022-12-07T05:11:48;7.40;69.00
19039;DHT22;9652;49.014;12.052;2022-12-07T05:14:16;7.20;68.60
19039;DHT22;9652;49.014;12.052;2022-12-07T05:16:46;7.20;68.50
19039;DHT22;9652;49.014;12.052;2022-12-07T05:19:16;7.10;68.40
19039;DHT22;9652;49.014;12.052;2022-12-07T05:21:44;7.00;68.30
19039;DHT22;9652;49.014;12.052;2022-12-07T05:24:13;6.90;68.30
19039;DHT22;9652;49.014;12.052;2022-12-07T05:26:41;6.80;68.20
19039;DHT22;9652;49.014;12.052;2022-12-07T05:29:12;6.80;68.20
19039;DHT22;9652;49.014;12.052;2022-12-07T05:31:40;6.60;68.20
19039;DHT22;9652;49.014;12.052;2022-12-07T05:34:08;6.60;68.30
19039;DHT22;9652;49.014;12.052;2022-12-07T05:36:36;6.50;68.30
19039;DHT22;9652;49.014;12.052;2022-12-07T05:39:03;6.40;68.30
19039;DHT22;9652;49.014;12.052;2022-12-07T05:41:31;6.40;68.40
19039;DHT22;9652;49.014;12.052;2022-12-07T05:44:16;6.30;68.30
19039;DHT22;9652;49.014;12.052;2022-12-07T05:46:44;6.20;68.40
19039;DHT22;9652;49.014;12.052;2022-12-07T05:49:11;6.20;68.40
19039;DHT22;9652;49.014;12.052;2022-12-07T05:51:38;6.10;68.50
19039;DHT22;9652;49.014;12.052;2022-12-07T05:54:05;6.10;68.60
19039;DHT22;9652;49.014;12.052;2022-12-07T05:56:32;6.00;68.70
19039;DHT22;9652;49.014;12.052;2022-12-07T05:58:59;5.90;68.80
19039;DHT22;9652;49.014;12.052;2022-12-07T06:01:48;5.90;68.90
19039;DHT22;9652;49.014;12.052;2022-12-07T06:04:15;5.80;69.00
19039;DHT22;9652;49.014;12.052;2022-12-07T06:06:42;5.80;69.10
19039;DHT22;9652;49.014;12.052;2022-12-07T06:09:10;5.80;69.20
19039;DHT22;9652;49.014;12.052;2022-12-07T06:11:38;5.70;69.40
19039;DHT22;9652;49.014;12.052;2022-12-07T06:14:23;5.70;69.50
19039;DHT22;9652;49.014;12.052;2022-12-07T06:16:52;5.60;69.50
19039;DHT22;9652;49.014;12.052;2022-12-07T06:19:19;5.60;69.60
19039;DHT22;9652;49.014;12.052;2022-12-07T06:21:46;5.60;69.70
19039;DHT22;9652;49.014;12.052;2022-12-07T06:24:15;5.60;69.90
19039;DHT22;9652;49.014;12.052;2022-12-07T06:26:43;5.50;69.90
19039;DHT22;9652;49.014;12.052;2022-12-07T06:29:12;5.50;69.90
19039;DHT22;9652;49.014;12.052;2022-12-07T06:31:39;5.50;69.90
19039;DHT22;9652;49.014;12.052;2022-12-07T06:34:10;5.50;69.90
19039;DHT22;9652;49.014;12.052;2022-12-07T06:36:39;5.50;70.00
19039;DHT22;9652;49.014;12.052;2022-12-07T06:39:07;5.50;70.00
19039;DHT22;9652;49.014;12.052;2022-12-07T06:41:35;5.50;70.00
19039;DHT22;9652;49.014;12.052;2022-12-07T06:44:04;5.50;70.00
19039;DHT22;9652;49.014;12.052;2022-12-07T06:46:32;5.40;70.00
19039;DHT22;9652;49.014;12.052;2022-12-07T06:49:01;5.40;69.90
19039;DHT22;9652;49.014;12.052;2022-12-07T06:51:29;5.40;69.90
19039;DHT22;9652;49.014;12.052;2022-12-07T06:53:57;5.30;69.80
19039;DHT22;9652;49.014;12.052;2022-12-07T06:56:24;5.30;69.90
19039;DHT22;9652;49.014;12.052;2022-12-07T06:58:51;5.30;70.10
19039;DHT22;9652;49.014;12.052;2022-12-07T07:01:18;5.30;70.50
19039;DHT22;9652;49.014;12.052;2022-12-07T07:03:46;5.40;71.00
19039;DHT22;9652;49.014;12.052;2022-12-07T07:06:14;5.30;71.20
19039;DHT22;9652;49.014;12.052;2022-12-07T07:08:42;5.40;71.40
19039;DHT22;9652;49.014;12.052;2022-12-07T07:11:10;5.40;71.60
19039;DHT22;9652;49.014;12.052;2022-12-07T07:13:38;5.50;71.80
19039;DHT22;9652;49.014;12.052;2022-12-07T07:16:06;5.50;71.90
19039;DHT22;9652;49.014;12.052;2022-12-07T07:18:33;5.50;72.00
19039;DHT22;9652;49.014;12.052;2022-12-07T07:21:01;5.60;72.20
19039;DHT22;9652;49.014;12.052;2022-12-07T07:23:29;5.70;72.40
19039;DHT22;9652;49.014;12.052;2022-12-07T07:25:57;5.70;72.60
19039;DHT22;9652;49.014;12.052;2022-12-07T07:28:24;5.80;72.70
19039;DHT22;9652;49.014;12.052;2022-12-07T07:30:52;5.90;72.80
19039;DHT22;9652;49.014;12.052;2022-12-07T07:33:19;5.90;72.80
19039;DHT22;9652;49.014;12.052;2022-12-07T07:35:46;6.00;72.80
19039;DHT22;9652;49.014;12.052;2022-12-07T07:38:13;6.10;72.80
19039;DHT22;9652;49.014;12.052;2022-12-07T07:40:40;6.10;72.60
19039;DHT22;9652;49.014;12.052;2022-12-07T07:43:08;6.20;72.60
19039;DHT22;9652;49.014;12.052;2022-12-07T07:45:36;6.30;72.40
19039;DHT22;9652;49.014;12.052;2022-12-07T07:48:03;6.30;72.10
19039;DHT22;9652;49.014;12.052;2022-12-07T07:50:30;6.40;71.80
19039;DHT22;9652;49.014;12.052;2022-12-07T07:52:57;6.40;71.80
19039;DHT22;9652;49.014;12.052;2022-12-07T07:55:24;6.50;71.80
19039;DHT22;9652;49.014;12.052;2022-12-07T07:57:52;6.50;72.00
19039;DHT22;9652;49.014;12.052;2022-12-07T08:00:21;6.50;72.00
19039;DHT22;9652;49.014;12.052;2022-12-07T08:02:48;6.60;72.00
19039;DHT22;9652;49.014;12.052;2022-12-07T08:05:16;6.60;72.00
19039;DHT22;9652;49.014;12.052;2022-12-07T08:07:44;6.70;72.00
19039;DHT22;9652;49.014;12.052;2022-12-07T08:10:12;6.70;72.00
19039;DHT22;9652;49.014;12.052;2022-12-07T08:12:42;6.80;72.20
19039;DHT22;9652;49.014;12.052;2022-12-07T08:15:26;6.90;72.50
19039;DHT22;9652;49.014;12.052;2022-12-07T08:17:54;6.90;72.30
19039;DHT22;9652;49.014;12.052;2022-12-07T08:20:21;7.00;72.20
19039;DHT22;9652;49.014;12.052;2022-12-07T08:22:49;7.10;72.10
19039;DHT22;9652;49.014;12.052;2022-12-07T08:25:16;7.20;72.00
19039;DHT22;9652;49.014;12.052;2022-12-07T08:27:43;7.20;71.90
19039;DHT22;9652;49.014;12.052;2022-12-07T08:30:11;7.30;71.90
19039;DHT22;9652;49.014;12.052;2022-12-07T08:32:40;7.40;71.90
19039;DHT22;9652;49.014;12.052;2022-12-07T08:35:08;7.40;71.80
19039;DHT22;9652;49.014;12.052;2022-12-07T08:37:36;7.50;71.80
19039;DHT22;9652;49.014;12.052;2022-12-07T08:40:04;7.60;71.70
19039;DHT22;9652;49.014;12.052;2022-12-07T08:42:33;7.60;71.50
19039;DHT22;9652;49.014;12.052;2022-12-07T08:45:06;7.70;71.40
19039;DHT22;9652;49.014;12.052;2022-12-07T08:47:35;7.80;71.30
19039;DHT22;9652;49.014;12.052;2022-12-07T08:50:08;7.80;71.20
19039;DHT22;9652;49.014;12.052;2022-12-07T08:52:37;7.90;71.00
19039;DHT22;9652;49.014;12.052;2022-12-07T08:55:08;8.00;70.90
19039;DHT22;9652;49.014;12.052;2022-12-07T08:57:37;8.00;70.70
19039;DHT22;9652;49.014;12.052;2022-12-07T09:00:06;8.00;70.50
19039;DHT22;9652;49.014;12.052;2022-12-07T09:02:35;8.10;70.60
19039;DHT22;9652;49.014;12.052;2022-12-07T09:05:03;8.10;70.50
19039;DHT22;9652;49.014;12.052;2022-12-07T09:07:32;8.10;70.30
19039;DHT22;9652;49.014;12.052;2022-12-07T09:10:00;8.20;70.30
19039;DHT22;9652;49.014;12.052;2022-12-07T09:12:28;8.20;70.30
19039;DHT22;9652;49.014;12.052;2022-12-07T09:14:55;8.20;70.00
19039;DHT22;9652;49.014;12.052;2022-12-07T09:17:22;8.20;70.10
19039;DHT22;9652;49.014;12.052;2022-12-07T09:19:50;8.30;70.20
19039;DHT22;9652;49.014;12.052;2022-12-07T09:22:17;8.30;70.30
19039;DHT22;9652;49.014;12.052;2022-12-07T09:24:46;8.30;70.10
19039;DHT22;9652;49.014;12.052;2022-12-07T09:27:13;8.50;70.00
19039;DHT22;9652;49.014;12.052;2022-12-07T09:29:41;8.40;69.80
19039;DHT22;9652;49.014;12.052;2022-12-07T09:32:08;8.50;70.00
19039;DHT22;9652;49.014;12.052;2022-12-07T09:34:35;8.60;69.90
19039;DHT22;9652;49.014;12.052;2022-12-07T09:37:02;8.50;69.60
19039;DHT22;9652;49.014;12.052;2022-12-07T09:39:29;8.50;69.40
19039;DHT22;9652;49.014;12.052;2022-12-07T09:41:59;8.60;69.30
19039;DHT22;9652;49.014;12.052;2022-12-07T09:44:31;8.60;69.10
19039;DHT22;9652;49.014;12.052;2022-12-07T09:47:00;8.60;69.20
19039;DHT22;9652;49.014;12.052;2022-12-07T09:49:30;8.70;69.40
19039;DHT22;9652;49.014;12.052;2022-12-07T09:52:16;8.70;69.30
19039;DHT22;9652;49.014;12.052;2022-12-07T09:54:47;8.80;69.10
19039;DHT22;9652;49.014;12.052;2022-12-07T09:57:17;8.80;69.10
19039;DHT22;9652;49.014;12.052;2022-12-07T09:59:54;8.90;68.90
19039;DHT22;9652;49.014;12.052;2022-12-07T10:02:34;8.90;68.30
19039;DHT22;9652;49.014;12.052;2022-12-07T10:05:06;8.90;67.80
19039;DHT22;9652;49.014;12.052;2022-12-07T10:07:37;8.90;68.30
19039;DHT22;9652;49.014;12.052;2022-12-07T10:10:09;9.00;68.30
19039;DHT22;9652;49.014;12.052;2022-12-07T10:12:55;8.90;68.00
19039;DHT22;9652;49.014;12.052;2022-12-07T10:15:42;8.90;67.50
19039;DHT22;9652;49.014;12.052;2022-12-07T10:18:19;8.90;67.20
19039;DHT22;9652;49.014;12.052;2022-12-07T10:21:05;8.90;67.40
19039;DHT22;9652;49.014;12.052;2022-12-07T10:23:39;8.90;67.60
19039;DHT22;9652;49.014;12.052;2022-12-07T10:26:33;8.90;68.00
19039;DHT22;9652;49.014;12.052;2022-12-07T10:29:15;8.90;67.30
19039;DHT22;9652;49.014;12.052;2022-12-07T10:31:45;9.00;67.40
19039;DHT22;9652;49.014;12.052;2022-12-07T10:34:21;9.00;67.90
19039;DHT22;9652;49.014;12.052;2022-12-07T10:36:51;9.00;67.80
19039;DHT22;9652;49.014;12.052;2022-12-07T10:39:20;9.00;67.80
19039;DHT22;9652;49.014;12.052;2022-12-07T10:41:56;9.10;68.00
19039;DHT22;9652;49.014;12.052;2022-12-07T10:44:28;9.10;67.80
19039;DHT22;9652;49.014;12.052;2022-12-07T10:47:08;9.10;67.80
19039;DHT22;9652;49.014;12.052;2022-12-07T10:50:02;9.20;67.60
19039;DHT22;9652;49.014;12.052;2022-12-07T10:53:08;9.20;67.60
19039;DHT22;9652;49.014;12.052;2022-12-07T10:56:08;9.30;67.80
19039;DHT22;9652;49.014;12.052;2022-12-07T10:58:55;9.40;67.40
19039;DHT22;9652;49.014;12.052;2022-12-07T11:01:41;9.40;67.20
19039;DHT22;9652;49.014;12.052;2022-12-07T11:04:20;9.50;67.20
19039;DHT22;9652;49.014;12.052;2022-12-07T11:07:01;9.50;66.90
19039;DHT22;9652;49.014;12.052;2022-12-07T11:09:52;9.60;66.90
19039;DHT22;9652;49.014;12.052;2022-12-07T11:12:38;9.60;66.20
19039;DHT22;9652;49.014;12.052;2022-12-07T11:15:20;9.70;66.40
19039;DHT22;9652;49.014;12.052;2022-12-07T11:17:59;9.70;66.80
19039;DHT22;9652;49.014;12.052;2022-12-07T11:20:39;9.70;66.40
19039;DHT22;9652;49.014;12.052;2022-12-07T11:23:18;9.70;66.30
19039;DHT22;9652;49.014;12.052;2022-12-07T11:26:04;9.80;66.20
19039;DHT22;9652;49.014;12.052;2022-12-07T11:28:53;9.80;65.80
19039;DHT22;9652;49.014;12.052;2022-12-07T11:31:39;9.90;65.80
19039;DHT22;9652;49.014;12.052;2022-12-07T11:34:26;9.90;65.90
19039;DHT22;9652;49.014;12.052;2022-12-07T11:37:08;9.90;65.40
19039;DHT22;9652;49.014;12.052;2022-12-07T11:39:43;9.90;65.20
19039;DHT22;9652;49.014;12.052;2022-12-07T11:42:20;9.90;64.60
19039;DHT22;9652;49.014;12.052;2022-12-07T11:44:52;9.90;64.90
19039;DHT22;9652;49.014;12.052;2022-12-07T11:47:27;10.00;65.10
19039;DHT22;9652;49.014;12.052;2022-12-07T11:50:14;9.90;64.70
19039;DHT22;9652;49.014;12.052;2022-12-07T11:52:54;10.00;64.70
19039;DHT22;9652;49.014;12.052;2022-12-07T11:55:30;10.00;65.00
19039;DHT22;9652;49.014;12.052;2022-12-07T11:58:19;10.00;65.00
19039;DHT22;9652;49.014;12.052;2022-12-07T12:01:12;10.00;64.90
19039;DHT22;9652;49.014;12.052;2022-12-07T12:03:44;10.00;64.70
19039;DHT22;9652;49.014;12.052;2022-12-07T12:06:15;10.10;65.00
19039;DHT22;9652;49.014;12.052;2022-12-07T12:08:45;10.10;64.90
19039;DHT22;9652;49.014;12.052;2022-12-07T12:11:27;10.10;64.60
19039;DHT22;9652;49.014;12.052;2022-12-07T12:14:24;10.10;64.30
19039;DHT22;9652;49.014;12.052;2022-12-07T12:17:29;10.10;63.90
19039;DHT22;9652;49.014;12.052;2022-12-07T12:20:20;10.10;64.10
19039;DHT22;9652;49.014;12.052;2022-12-07T12:22:59;10.10;63.90
19039;DHT22;9652;49.014;12.052;2022-12-07T12:25:39;10.00;64.00
19039;DHT22;9652;49.014;12.052;2022-12-07T12:28:20;10.00;64.10
19039;DHT22;9652;49.014;12.052;2022-12-07T12:31:06;10.00;64.00
19039;DHT22;9652;49.014;12.052;2022-12-07T12:33:35;10.00;64.10
19039;DHT22;9652;49.014;12.052;2022-12-07T12:36:24;9.90;64.60
19039;DHT22;9652;49.014;12.052;2022-12-07T12:39:12;10.00;64.30
19039;DHT22;9652;49.014;12.052;2022-12-07T12:41:57;10.00;64.40
19039;DHT22;9652;49.014;12.052;2022-12-07T12:45:05;9.90;64.40
19039;DHT22;9652;49.014;12.052;2022-12-07T12:47:56;10.00;64.60
19039;DHT22;9652;49.014;12.052;2022-12-07T12:50:29;10.00;64.60
19039;DHT22;9652;49.014;12.052;2022-12-07T12:53:20;9.90;64.70
19039;DHT22;9652;49.014;12.052;2022-12-07T12:56:13;9.90;64.80
19039;DHT22;9652;49.014;12.052;2022-12-07T12:59:21;9.90;64.90
19039;DHT22;9652;49.014;12.052;2022-12-07T13:01:51;9.80;65.00
19039;DHT22;9652;49.014;12.052;2022-12-07T13:04:39;9.80;65.40
19039;DHT22;9652;49.014;12.052;2022-12-07T13:07:51;9.80;64.90
19039;DHT22;9652;49.014;12.052;2022-12-07T13:10:36;9.80;64.80
19039;DHT22;9652;49.014;12.052;2022-12-07T13:13:35;9.80;64.90
19039;DHT22;9652;49.014;12.052;2022-12-07T13:22:48;9.70;64.80
19039;DHT22;9652;49.014;12.052;2022-12-07T13:25:23;9.70;64.90
19039;DHT22;9652;49.014;12.052;2022-12-07T13:28:00;9.70;65.20
19039;DHT22;9652;49.014;12.052;2022-12-07T13:30:45;9.70;65.20
19039;DHT22;9652;49.014;12.052;2022-12-07T13:33:17;9.70;64.90
19039;DHT22;9652;49.014;12.052;2022-12-07T13:35:45;9.70;65.20
19039;DHT22;9652;49.014;12.052;2022-12-07T13:38:22;9.70;65.20
19039;DHT22;9652;49.014;12.052;2022-12-07T13:41:16;9.70;65.00
19039;DHT22;9652;49.014;12.052;2022-12-07T13:43:49;9.70;64.70
19039;DHT22;9652;49.014;12.052;2022-12-07T13:46:25;9.70;65.10
19039;DHT22;9652;49.014;12.052;2022-12-07T13:48:59;9.70;65.10
19039;DHT22;9652;49.014;12.052;2022-12-07T13:51:27;9.70;65.30
19039;DHT22;9652;49.014;12.052;2022-12-07T13:53:59;9.70;65.40
19039;DHT22;9652;49.014;12.052;2022-12-07T13:56:32;9.70;65.40
19039;DHT22;9652;49.014;12.052;2022-12-07T13:59:01;9.60;65.30
19039;DHT22;9652;49.014;12.052;2022-12-07T14:01:30;9.60;65.30
19039;DHT22;9652;49.014;12.052;2022-12-07T14:04:16;9.70;65.30
19039;DHT22;9652;49.014;12.052;2022-12-07T14:07:19;9.60;64.80
19039;DHT22;9652;49.014;12.052;2022-12-07T14:09:58;9.60;64.80
19039;DHT22;9652;49.014;12.052;2022-12-07T14:12:29;9.70;65.20
19039;DHT22;9652;49.014;12.052;2022-12-07T14:14:59;9.60;65.10
19039;DHT22;9652;49.014;12.052;2022-12-07T14:17:27;9.60;65.20
19039;DHT22;9652;49.014;12.052;2022-12-07T14:19:57;9.60;65.20
19039;DHT22;9652;49.014;12.052;2022-12-07T14:22:28;9.60;65.10
19039;DHT22;9652;49.014;12.052;2022-12-07T14:25:18;9.60;65.10
19039;DHT22;9652;49.014;12.052;2022-12-07T14:27:53;9.60;64.80
19039;DHT22;9652;49.014;12.052;2022-12-07T14:30:25;9.60;65.30
19039;DHT22;9652;49.014;12.052;2022-12-07T14:32:56;9.60;65.30
19039;DHT22;9652;49.014;12.052;2022-12-07T14:35:26;9.60;65.30
19039;DHT22;9652;49.014;12.052;2022-12-07T14:37:54;9.60;65.30
19039;DHT22;9652;49.014;12.052;2022-12-07T14:40:24;9.60;65.40
19039;DHT22;9652;49.014;12.052;2022-12-07T14:42:55;9.60;65.40
19039;DHT22;9652;49.014;12.052;2022-12-07T14:45:26;9.60;65.50
19039;DHT22;9652;49.014;12.052;2022-12-07T14:47:54;9.60;65.40
19039;DHT22;9652;49.014;12.052;2022-12-07T14:50:21;9.50;65.30
19039;DHT22;9652;49.014;12.052;2022-12-07T14:52:52;9.50;65.10
19039;DHT22;9652;49.014;12.052;2022-12-07T14:55:25;9.50;65.10
19039;DHT22;9652;49.014;12.052;2022-12-07T14:57:54;9.50;65.10
19039;DHT22;9652;49.014;12.052;2022-12-07T15:00:23;9.40;65.00
19039;DHT22;9652;49.014;12.052;2022-12-07T15:02:52;9.40;65.00
19039;DHT22;9652;49.014;12.052;2022-12-07T15:05:21;9.40;65.10
19039;DHT22;9652;49.014;12.052;2022-12-07T15:07:49;9.30;65.10
19039;DHT22;9652;49.014;12.052;2022-12-07T15:10:18;9.30;65.10
19039;DHT22;9652;49.014;12.052;2022-12-07T15:12:49;9.20;65.10
19039;DHT22;9652;49.014;12.052;2022-12-07T15:15:16;9.20;65.10
19039;DHT22;9652;49.014;12.052;2022-12-07T15:17:44;9.20;65.30
19039;DHT22;9652;49.014;12.052;2022-12-07T15:20:12;9.20;65.30
19039;DHT22;9652;49.014;12.052;2022-12-07T15:22:42;9.10;65.30
19039;DHT22;9652;49.014;12.052;2022-12-07T15:25:12;9.10;65.40
19039;DHT22;9652;49.014;12.052;2022-12-07T15:27:40;9.10;65.40
19039;DHT22;9652;49.014;12.052;2022-12-07T15:30:09;9.00;65.50
19039;DHT22;9652;49.014;12.052;2022-12-07T15:32:36;9.00;65.60
19039;DHT22;9652;49.014;12.052;2022-12-07T15:35:04;9.00;65.60
19039;DHT22;9652;49.014;12.052;2022-12-07T15:37:32;9.00;65.70
19039;DHT22;9652;49.014;12.052;2022-12-07T15:39:59;8.90;65.80
19039;DHT22;9652;49.014;12.052;2022-12-07T15:42:26;8.90;65.70
19039;DHT22;9652;49.014;12.052;2022-12-07T15:44:53;8.90;65.80
19039;DHT22;9652;49.014;12.052;2022-12-07T15:47:31;8.90;65.80
19039;DHT22;9652;49.014;12.052;2022-12-07T15:49:58;8.90;65.80
19039;DHT22;9652;49.014;12.052;2022-12-07T15:52:26;8.80;66.70
19039;DHT22;9652;49.014;12.052;2022-12-07T15:54:53;8.80;66.00
19039;DHT22;9652;49.014;12.052;2022-12-07T15:57:21;8.80;66.10
19039;DHT22;9652;49.014;12.052;2022-12-07T15:59:48;8.80;66.10
19039;DHT22;9652;49.014;12.052;2022-12-07T16:02:15;8.80;66.10
19039;DHT22;9652;49.014;12.052;2022-12-07T16:04:43;8.70;66.10
19039;DHT22;9652;49.014;12.052;2022-12-07T16:07:11;8.80;66.20
19039;DHT22;9652;49.014;12.052;2022-12-07T16:09:41;8.80;66.30
19039;DHT22;9652;49.014;12.052;2022-12-07T16:12:09;8.70;66.20
19039;DHT22;9652;49.014;12.052;2022-12-07T16:14:37;8.70;66.40
19039;DHT22;9652;49.014;12.052;2022-12-07T16:17:05;8.70;66.40
19039;DHT22;9652;49.014;12.052;2022-12-07T16:19:33;8.70;66.40
19039;DHT22;9652;49.014;12.052;2022-12-07T16:22:03;8.70;66.50
19039;DHT22;9652;49.014;12.052;2022-12-07T16:24:30;8.70;66.50
19039;DHT22;9652;49.014;12.052;2022-12-07T16:26:58;8.70;66.50
19039;DHT22;9652;49.014;12.052;2022-12-07T16:29:26;8.70;66.50